<?xml version="1.0" encoding="UTF-8" standalone="no" ?>
<gpx xmlns="http://www.topografix.com/GPX/1/1" xmlns:xsi="http://www.w3.org/2001/XMLSchema-instance" xsi:schemaLocation="http://www.topografix.com/GPX/1/1 http://www.topografix.com/GPX/1/1/gpx.xsd" version="1.1" creator="VisuGPX - https://www.visugpx.com">
  <metadata>
    <name>OMS CHENOVE Marche du vendredi 14 décembre 2012</name>
    <desc><![CDATA[DE Velars à Corcelles]]></desc>
  </metadata>
  <trk>
    <name><![CDATA[OMS CHENOVE Marche du vendredi 14 décembre 2012_1]]></name>
    <trkseg>
      <trkpt lat="47.31898" lon="4.90805">
        <ele>274.958</ele>
        <time>2012-12-14T09:31:41Z</time>
      </trkpt>
      <trkpt lat="47.3189" lon="4.90825">
        <ele>273.17</ele>
        <time>2012-12-14T09:31:52Z</time>
      </trkpt>
      <trkpt lat="47.31877" lon="4.90833">
        <ele>271.162</ele>
        <time>2012-12-14T09:32:03Z</time>
      </trkpt>
      <trkpt lat="47.31873" lon="4.90842">
        <ele>271.609</ele>
        <time>2012-12-14T09:32:14Z</time>
      </trkpt>
      <trkpt lat="47.31872" lon="4.9086">
        <ele>271.885</ele>
        <time>2012-12-14T09:32:25Z</time>
      </trkpt>
      <trkpt lat="47.31865" lon="4.90872">
        <ele>273.54</ele>
        <time>2012-12-14T09:32:36Z</time>
      </trkpt>
      <trkpt lat="47.31858" lon="4.90888">
        <ele>274.103</ele>
        <time>2012-12-14T09:32:47Z</time>
      </trkpt>
      <trkpt lat="47.31853" lon="4.90903">
        <ele>278.539</ele>
        <time>2012-12-14T09:32:58Z</time>
      </trkpt>
      <trkpt lat="47.31848" lon="4.90922">
        <ele>281.513</ele>
        <time>2012-12-14T09:33:09Z</time>
      </trkpt>
      <trkpt lat="47.31842" lon="4.90945">
        <ele>279.613</ele>
        <time>2012-12-14T09:33:20Z</time>
      </trkpt>
      <trkpt lat="47.31838" lon="4.90962">
        <ele>279.002</ele>
        <time>2012-12-14T09:33:31Z</time>
      </trkpt>
      <trkpt lat="47.31835" lon="4.9098">
        <ele>277.795</ele>
        <time>2012-12-14T09:33:42Z</time>
      </trkpt>
      <trkpt lat="47.31832" lon="4.91007">
        <ele>275.631</ele>
        <time>2012-12-14T09:33:53Z</time>
      </trkpt>
      <trkpt lat="47.3183" lon="4.91033">
        <ele>273.337</ele>
        <time>2012-12-14T09:34:04Z</time>
      </trkpt>
      <trkpt lat="47.31827" lon="4.9105">
        <ele>273.126</ele>
        <time>2012-12-14T09:34:15Z</time>
      </trkpt>
      <trkpt lat="47.31817" lon="4.91062">
        <ele>271.393</ele>
        <time>2012-12-14T09:34:26Z</time>
      </trkpt>
      <trkpt lat="47.31812" lon="4.91065">
        <ele>272.157</ele>
        <time>2012-12-14T09:34:37Z</time>
      </trkpt>
      <trkpt lat="47.31807" lon="4.91057">
        <ele>273.234</ele>
        <time>2012-12-14T09:34:48Z</time>
      </trkpt>
      <trkpt lat="47.31798" lon="4.9106">
        <ele>273.133</ele>
        <time>2012-12-14T09:34:59Z</time>
      </trkpt>
      <trkpt lat="47.31792" lon="4.91062">
        <ele>271.157</ele>
        <time>2012-12-14T09:35:10Z</time>
      </trkpt>
      <trkpt lat="47.3179" lon="4.91063">
        <ele>270.978</ele>
        <time>2012-12-14T09:35:21Z</time>
      </trkpt>
      <trkpt lat="47.3179" lon="4.91063">
        <ele>271.247</ele>
        <time>2012-12-14T09:35:32Z</time>
      </trkpt>
      <trkpt lat="47.31787" lon="4.91065">
        <ele>271.08</ele>
        <time>2012-12-14T09:35:43Z</time>
      </trkpt>
      <trkpt lat="47.31783" lon="4.91063">
        <ele>271.199</ele>
        <time>2012-12-14T09:35:54Z</time>
      </trkpt>
      <trkpt lat="47.31787" lon="4.91147">
        <ele>270.154</ele>
        <time>2012-12-14T09:36:05Z</time>
      </trkpt>
      <trkpt lat="47.31758" lon="4.91105">
        <ele>277.505</ele>
        <time>2012-12-14T09:36:16Z</time>
      </trkpt>
      <trkpt lat="47.31758" lon="4.91122">
        <ele>275.168</ele>
        <time>2012-12-14T09:36:27Z</time>
      </trkpt>
      <trkpt lat="47.31767" lon="4.91145">
        <ele>276.608</ele>
        <time>2012-12-14T09:36:38Z</time>
      </trkpt>
      <trkpt lat="47.31777" lon="4.91158">
        <ele>282.978</ele>
        <time>2012-12-14T09:36:49Z</time>
      </trkpt>
      <trkpt lat="47.31778" lon="4.91183">
        <ele>283.182</ele>
        <time>2012-12-14T09:37:00Z</time>
      </trkpt>
      <trkpt lat="47.31767" lon="4.91203">
        <ele>283.343</ele>
        <time>2012-12-14T09:37:11Z</time>
      </trkpt>
      <trkpt lat="47.31755" lon="4.91227">
        <ele>282.783</ele>
        <time>2012-12-14T09:37:22Z</time>
      </trkpt>
      <trkpt lat="47.3174" lon="4.91248">
        <ele>277.731</ele>
        <time>2012-12-14T09:37:33Z</time>
      </trkpt>
      <trkpt lat="47.31728" lon="4.91263">
        <ele>276.541</ele>
        <time>2012-12-14T09:37:44Z</time>
      </trkpt>
      <trkpt lat="47.31713" lon="4.91268">
        <ele>275.763</ele>
        <time>2012-12-14T09:37:55Z</time>
      </trkpt>
      <trkpt lat="47.31698" lon="4.91258">
        <ele>276.845</ele>
        <time>2012-12-14T09:38:06Z</time>
      </trkpt>
      <trkpt lat="47.31685" lon="4.91253">
        <ele>277.163</ele>
        <time>2012-12-14T09:38:17Z</time>
      </trkpt>
      <trkpt lat="47.31668" lon="4.91248">
        <ele>276.551</ele>
        <time>2012-12-14T09:38:28Z</time>
      </trkpt>
      <trkpt lat="47.31652" lon="4.91245">
        <ele>277.046</ele>
        <time>2012-12-14T09:38:39Z</time>
      </trkpt>
      <trkpt lat="47.31638" lon="4.91248">
        <ele>277.138</ele>
        <time>2012-12-14T09:38:50Z</time>
      </trkpt>
      <trkpt lat="47.31625" lon="4.91253">
        <ele>277.554</ele>
        <time>2012-12-14T09:39:01Z</time>
      </trkpt>
      <trkpt lat="47.31615" lon="4.91255">
        <ele>278.309</ele>
        <time>2012-12-14T09:39:12Z</time>
      </trkpt>
      <trkpt lat="47.31595" lon="4.91255">
        <ele>279.897</ele>
        <time>2012-12-14T09:39:23Z</time>
      </trkpt>
      <trkpt lat="47.31577" lon="4.91255">
        <ele>279.323</ele>
        <time>2012-12-14T09:39:34Z</time>
      </trkpt>
      <trkpt lat="47.31562" lon="4.91255">
        <ele>278.517</ele>
        <time>2012-12-14T09:39:45Z</time>
      </trkpt>
      <trkpt lat="47.31547" lon="4.91257">
        <ele>278.356</ele>
        <time>2012-12-14T09:39:56Z</time>
      </trkpt>
      <trkpt lat="47.31532" lon="4.91253">
        <ele>278.006</ele>
        <time>2012-12-14T09:40:07Z</time>
      </trkpt>
      <trkpt lat="47.31517" lon="4.91253">
        <ele>278.057</ele>
        <time>2012-12-14T09:40:18Z</time>
      </trkpt>
      <trkpt lat="47.315" lon="4.91255">
        <ele>278.331</ele>
        <time>2012-12-14T09:40:29Z</time>
      </trkpt>
      <trkpt lat="47.31487" lon="4.91253">
        <ele>276.797</ele>
        <time>2012-12-14T09:40:40Z</time>
      </trkpt>
      <trkpt lat="47.31473" lon="4.91255">
        <ele>277.807</ele>
        <time>2012-12-14T09:40:51Z</time>
      </trkpt>
      <trkpt lat="47.31453" lon="4.91257">
        <ele>277.102</ele>
        <time>2012-12-14T09:41:02Z</time>
      </trkpt>
      <trkpt lat="47.31437" lon="4.91262">
        <ele>278.769</ele>
        <time>2012-12-14T09:41:13Z</time>
      </trkpt>
      <trkpt lat="47.31418" lon="4.91263">
        <ele>280.359</ele>
        <time>2012-12-14T09:41:24Z</time>
      </trkpt>
      <trkpt lat="47.31403" lon="4.91268">
        <ele>283.622</ele>
        <time>2012-12-14T09:41:35Z</time>
      </trkpt>
      <trkpt lat="47.31392" lon="4.91273">
        <ele>285.049</ele>
        <time>2012-12-14T09:41:46Z</time>
      </trkpt>
      <trkpt lat="47.31378" lon="4.91282">
        <ele>285.85</ele>
        <time>2012-12-14T09:41:57Z</time>
      </trkpt>
      <trkpt lat="47.31365" lon="4.91288">
        <ele>286.776</ele>
        <time>2012-12-14T09:42:08Z</time>
      </trkpt>
      <trkpt lat="47.31352" lon="4.91295">
        <ele>287.899</ele>
        <time>2012-12-14T09:42:19Z</time>
      </trkpt>
      <trkpt lat="47.31335" lon="4.91302">
        <ele>288.46</ele>
        <time>2012-12-14T09:42:30Z</time>
      </trkpt>
      <trkpt lat="47.31317" lon="4.91307">
        <ele>288.151</ele>
        <time>2012-12-14T09:42:41Z</time>
      </trkpt>
      <trkpt lat="47.313" lon="4.91315">
        <ele>288.44</ele>
        <time>2012-12-14T09:42:52Z</time>
      </trkpt>
      <trkpt lat="47.31283" lon="4.91318">
        <ele>289.712</ele>
        <time>2012-12-14T09:43:03Z</time>
      </trkpt>
      <trkpt lat="47.3127" lon="4.9132">
        <ele>290.191</ele>
        <time>2012-12-14T09:43:14Z</time>
      </trkpt>
      <trkpt lat="47.31258" lon="4.91322">
        <ele>292.349</ele>
        <time>2012-12-14T09:43:25Z</time>
      </trkpt>
      <trkpt lat="47.3124" lon="4.9132">
        <ele>291.486</ele>
        <time>2012-12-14T09:43:36Z</time>
      </trkpt>
      <trkpt lat="47.31223" lon="4.91318">
        <ele>289.275</ele>
        <time>2012-12-14T09:43:47Z</time>
      </trkpt>
      <trkpt lat="47.31208" lon="4.91315">
        <ele>289.744</ele>
        <time>2012-12-14T09:43:58Z</time>
      </trkpt>
      <trkpt lat="47.31197" lon="4.91308">
        <ele>291.026</ele>
        <time>2012-12-14T09:44:09Z</time>
      </trkpt>
      <trkpt lat="47.31177" lon="4.91302">
        <ele>290.476</ele>
        <time>2012-12-14T09:44:20Z</time>
      </trkpt>
      <trkpt lat="47.31162" lon="4.91295">
        <ele>290.685</ele>
        <time>2012-12-14T09:44:31Z</time>
      </trkpt>
      <trkpt lat="47.3115" lon="4.91288">
        <ele>292.672</ele>
        <time>2012-12-14T09:44:42Z</time>
      </trkpt>
      <trkpt lat="47.31133" lon="4.91278">
        <ele>295.021</ele>
        <time>2012-12-14T09:44:53Z</time>
      </trkpt>
      <trkpt lat="47.31118" lon="4.91267">
        <ele>296.33</ele>
        <time>2012-12-14T09:45:04Z</time>
      </trkpt>
      <trkpt lat="47.31107" lon="4.91257">
        <ele>297.798</ele>
        <time>2012-12-14T09:45:15Z</time>
      </trkpt>
      <trkpt lat="47.31093" lon="4.9125">
        <ele>297.427</ele>
        <time>2012-12-14T09:45:26Z</time>
      </trkpt>
      <trkpt lat="47.31085" lon="4.91242">
        <ele>297.783</ele>
        <time>2012-12-14T09:45:37Z</time>
      </trkpt>
      <trkpt lat="47.31073" lon="4.91233">
        <ele>298.612</ele>
        <time>2012-12-14T09:45:48Z</time>
      </trkpt>
      <trkpt lat="47.31062" lon="4.91227">
        <ele>297.126</ele>
        <time>2012-12-14T09:45:59Z</time>
      </trkpt>
      <trkpt lat="47.31048" lon="4.91223">
        <ele>296.416</ele>
        <time>2012-12-14T09:46:10Z</time>
      </trkpt>
      <trkpt lat="47.31032" lon="4.91222">
        <ele>294.262</ele>
        <time>2012-12-14T09:46:21Z</time>
      </trkpt>
      <trkpt lat="47.31017" lon="4.91223">
        <ele>295.209</ele>
        <time>2012-12-14T09:46:32Z</time>
      </trkpt>
      <trkpt lat="47.31005" lon="4.91222">
        <ele>296.911</ele>
        <time>2012-12-14T09:46:43Z</time>
      </trkpt>
      <trkpt lat="47.30988" lon="4.91223">
        <ele>297.685</ele>
        <time>2012-12-14T09:46:54Z</time>
      </trkpt>
      <trkpt lat="47.30973" lon="4.91228">
        <ele>298.741</ele>
        <time>2012-12-14T09:47:05Z</time>
      </trkpt>
      <trkpt lat="47.30953" lon="4.91235">
        <ele>299.776</ele>
        <time>2012-12-14T09:47:16Z</time>
      </trkpt>
      <trkpt lat="47.30932" lon="4.91238">
        <ele>300.059</ele>
        <time>2012-12-14T09:47:27Z</time>
      </trkpt>
      <trkpt lat="47.30913" lon="4.91238">
        <ele>297.905</ele>
        <time>2012-12-14T09:47:38Z</time>
      </trkpt>
      <trkpt lat="47.30897" lon="4.91238">
        <ele>298.609</ele>
        <time>2012-12-14T09:47:49Z</time>
      </trkpt>
      <trkpt lat="47.30882" lon="4.91237">
        <ele>295.911</ele>
        <time>2012-12-14T09:48:00Z</time>
      </trkpt>
      <trkpt lat="47.30863" lon="4.91235">
        <ele>296.882</ele>
        <time>2012-12-14T09:48:11Z</time>
      </trkpt>
      <trkpt lat="47.3085" lon="4.91235">
        <ele>295.225</ele>
        <time>2012-12-14T09:48:22Z</time>
      </trkpt>
      <trkpt lat="47.30835" lon="4.9123">
        <ele>296.497</ele>
        <time>2012-12-14T09:48:33Z</time>
      </trkpt>
      <trkpt lat="47.30818" lon="4.91227">
        <ele>295.974</ele>
        <time>2012-12-14T09:48:44Z</time>
      </trkpt>
      <trkpt lat="47.30803" lon="4.91223">
        <ele>296.769</ele>
        <time>2012-12-14T09:48:55Z</time>
      </trkpt>
      <trkpt lat="47.30788" lon="4.91222">
        <ele>297.813</ele>
        <time>2012-12-14T09:49:06Z</time>
      </trkpt>
      <trkpt lat="47.30772" lon="4.91218">
        <ele>298.219</ele>
        <time>2012-12-14T09:49:17Z</time>
      </trkpt>
      <trkpt lat="47.30755" lon="4.91215">
        <ele>297.459</ele>
        <time>2012-12-14T09:49:28Z</time>
      </trkpt>
      <trkpt lat="47.3074" lon="4.9121">
        <ele>295.961</ele>
        <time>2012-12-14T09:49:39Z</time>
      </trkpt>
      <trkpt lat="47.30723" lon="4.91205">
        <ele>296.105</ele>
        <time>2012-12-14T09:49:50Z</time>
      </trkpt>
      <trkpt lat="47.30708" lon="4.91198">
        <ele>295.424</ele>
        <time>2012-12-14T09:50:01Z</time>
      </trkpt>
      <trkpt lat="47.30695" lon="4.91195">
        <ele>296.008</ele>
        <time>2012-12-14T09:50:12Z</time>
      </trkpt>
      <trkpt lat="47.30678" lon="4.91192">
        <ele>296.43</ele>
        <time>2012-12-14T09:50:23Z</time>
      </trkpt>
      <trkpt lat="47.30662" lon="4.91192">
        <ele>297.863</ele>
        <time>2012-12-14T09:50:34Z</time>
      </trkpt>
      <trkpt lat="47.30645" lon="4.9119">
        <ele>298.382</ele>
        <time>2012-12-14T09:50:45Z</time>
      </trkpt>
      <trkpt lat="47.3063" lon="4.9119">
        <ele>299.712</ele>
        <time>2012-12-14T09:50:56Z</time>
      </trkpt>
      <trkpt lat="47.30617" lon="4.91195">
        <ele>302.632</ele>
        <time>2012-12-14T09:51:07Z</time>
      </trkpt>
      <trkpt lat="47.306" lon="4.91205">
        <ele>302.215</ele>
        <time>2012-12-14T09:51:18Z</time>
      </trkpt>
      <trkpt lat="47.30588" lon="4.91215">
        <ele>302.883</ele>
        <time>2012-12-14T09:51:29Z</time>
      </trkpt>
      <trkpt lat="47.30587" lon="4.91235">
        <ele>305.636</ele>
        <time>2012-12-14T09:51:40Z</time>
      </trkpt>
      <trkpt lat="47.30583" lon="4.91258">
        <ele>308.513</ele>
        <time>2012-12-14T09:51:51Z</time>
      </trkpt>
      <trkpt lat="47.30583" lon="4.91275">
        <ele>309.66</ele>
        <time>2012-12-14T09:52:02Z</time>
      </trkpt>
      <trkpt lat="47.30592" lon="4.91295">
        <ele>310.68</ele>
        <time>2012-12-14T09:52:13Z</time>
      </trkpt>
      <trkpt lat="47.30602" lon="4.91312">
        <ele>312.127</ele>
        <time>2012-12-14T09:52:24Z</time>
      </trkpt>
      <trkpt lat="47.30608" lon="4.91327">
        <ele>314.332</ele>
        <time>2012-12-14T09:52:35Z</time>
      </trkpt>
      <trkpt lat="47.30608" lon="4.91338">
        <ele>316.568</ele>
        <time>2012-12-14T09:52:46Z</time>
      </trkpt>
      <trkpt lat="47.30602" lon="4.91345">
        <ele>318.2</ele>
        <time>2012-12-14T09:52:57Z</time>
      </trkpt>
      <trkpt lat="47.30593" lon="4.91352">
        <ele>320.749</ele>
        <time>2012-12-14T09:53:08Z</time>
      </trkpt>
      <trkpt lat="47.30588" lon="4.91358">
        <ele>322.874</ele>
        <time>2012-12-14T09:53:19Z</time>
      </trkpt>
      <trkpt lat="47.3058" lon="4.91375">
        <ele>325.352</ele>
        <time>2012-12-14T09:53:30Z</time>
      </trkpt>
      <trkpt lat="47.30568" lon="4.91388">
        <ele>327.489</ele>
        <time>2012-12-14T09:53:41Z</time>
      </trkpt>
      <trkpt lat="47.30563" lon="4.91403">
        <ele>329.383</ele>
        <time>2012-12-14T09:53:52Z</time>
      </trkpt>
      <trkpt lat="47.30557" lon="4.91415">
        <ele>332.873</ele>
        <time>2012-12-14T09:54:03Z</time>
      </trkpt>
      <trkpt lat="47.3055" lon="4.91427">
        <ele>334.26</ele>
        <time>2012-12-14T09:54:14Z</time>
      </trkpt>
      <trkpt lat="47.30535" lon="4.91433">
        <ele>336.12</ele>
        <time>2012-12-14T09:54:25Z</time>
      </trkpt>
      <trkpt lat="47.30528" lon="4.91443">
        <ele>337.432</ele>
        <time>2012-12-14T09:54:36Z</time>
      </trkpt>
      <trkpt lat="47.30518" lon="4.91452">
        <ele>335.468</ele>
        <time>2012-12-14T09:54:47Z</time>
      </trkpt>
      <trkpt lat="47.30505" lon="4.91457">
        <ele>335.19</ele>
        <time>2012-12-14T09:54:58Z</time>
      </trkpt>
      <trkpt lat="47.30495" lon="4.9146">
        <ele>335.031</ele>
        <time>2012-12-14T09:55:09Z</time>
      </trkpt>
      <trkpt lat="47.30488" lon="4.91465">
        <ele>335.369</ele>
        <time>2012-12-14T09:55:20Z</time>
      </trkpt>
      <trkpt lat="47.30472" lon="4.91472">
        <ele>337.229</ele>
        <time>2012-12-14T09:55:31Z</time>
      </trkpt>
      <trkpt lat="47.3046" lon="4.91475">
        <ele>336.276</ele>
        <time>2012-12-14T09:55:42Z</time>
      </trkpt>
      <trkpt lat="47.30447" lon="4.91477">
        <ele>337.514</ele>
        <time>2012-12-14T09:55:53Z</time>
      </trkpt>
      <trkpt lat="47.30427" lon="4.91485">
        <ele>334.708</ele>
        <time>2012-12-14T09:56:04Z</time>
      </trkpt>
      <trkpt lat="47.30412" lon="4.91487">
        <ele>335.153</ele>
        <time>2012-12-14T09:56:15Z</time>
      </trkpt>
      <trkpt lat="47.304" lon="4.91492">
        <ele>336.073</ele>
        <time>2012-12-14T09:56:26Z</time>
      </trkpt>
      <trkpt lat="47.30385" lon="4.91498">
        <ele>336.317</ele>
        <time>2012-12-14T09:56:37Z</time>
      </trkpt>
      <trkpt lat="47.3037" lon="4.91502">
        <ele>338.156</ele>
        <time>2012-12-14T09:56:48Z</time>
      </trkpt>
      <trkpt lat="47.3036" lon="4.91503">
        <ele>338.024</ele>
        <time>2012-12-14T09:56:59Z</time>
      </trkpt>
      <trkpt lat="47.30345" lon="4.91505">
        <ele>335.521</ele>
        <time>2012-12-14T09:57:10Z</time>
      </trkpt>
      <trkpt lat="47.30335" lon="4.91508">
        <ele>333.964</ele>
        <time>2012-12-14T09:57:21Z</time>
      </trkpt>
      <trkpt lat="47.30325" lon="4.91515">
        <ele>332.826</ele>
        <time>2012-12-14T09:57:32Z</time>
      </trkpt>
      <trkpt lat="47.30317" lon="4.9152">
        <ele>334.102</ele>
        <time>2012-12-14T09:57:43Z</time>
      </trkpt>
      <trkpt lat="47.30305" lon="4.91525">
        <ele>334.446</ele>
        <time>2012-12-14T09:57:54Z</time>
      </trkpt>
      <trkpt lat="47.30295" lon="4.9153">
        <ele>333.898</ele>
        <time>2012-12-14T09:58:05Z</time>
      </trkpt>
      <trkpt lat="47.30287" lon="4.91538">
        <ele>333.037</ele>
        <time>2012-12-14T09:58:16Z</time>
      </trkpt>
      <trkpt lat="47.3028" lon="4.91545">
        <ele>333.443</ele>
        <time>2012-12-14T09:58:27Z</time>
      </trkpt>
      <trkpt lat="47.30273" lon="4.91548">
        <ele>334.709</ele>
        <time>2012-12-14T09:58:38Z</time>
      </trkpt>
      <trkpt lat="47.3026" lon="4.9155">
        <ele>335.463</ele>
        <time>2012-12-14T09:58:49Z</time>
      </trkpt>
      <trkpt lat="47.3025" lon="4.9155">
        <ele>335.791</ele>
        <time>2012-12-14T09:59:00Z</time>
      </trkpt>
      <trkpt lat="47.30238" lon="4.91552">
        <ele>336.749</ele>
        <time>2012-12-14T09:59:11Z</time>
      </trkpt>
      <trkpt lat="47.3022" lon="4.91548">
        <ele>337.128</ele>
        <time>2012-12-14T09:59:22Z</time>
      </trkpt>
      <trkpt lat="47.30207" lon="4.91543">
        <ele>338.459</ele>
        <time>2012-12-14T09:59:33Z</time>
      </trkpt>
      <trkpt lat="47.30195" lon="4.91543">
        <ele>337.001</ele>
        <time>2012-12-14T09:59:44Z</time>
      </trkpt>
      <trkpt lat="47.30188" lon="4.91545">
        <ele>335.615</ele>
        <time>2012-12-14T09:59:55Z</time>
      </trkpt>
      <trkpt lat="47.30178" lon="4.91542">
        <ele>334.719</ele>
        <time>2012-12-14T10:00:06Z</time>
      </trkpt>
      <trkpt lat="47.3017" lon="4.91543">
        <ele>336.386</ele>
        <time>2012-12-14T10:00:17Z</time>
      </trkpt>
      <trkpt lat="47.3016" lon="4.91543">
        <ele>336.323</ele>
        <time>2012-12-14T10:00:28Z</time>
      </trkpt>
      <trkpt lat="47.30143" lon="4.91538">
        <ele>335.617</ele>
        <time>2012-12-14T10:00:39Z</time>
      </trkpt>
      <trkpt lat="47.30123" lon="4.91533">
        <ele>337.397</ele>
        <time>2012-12-14T10:00:50Z</time>
      </trkpt>
      <trkpt lat="47.30105" lon="4.91532">
        <ele>336.135</ele>
        <time>2012-12-14T10:01:01Z</time>
      </trkpt>
      <trkpt lat="47.30083" lon="4.91528">
        <ele>337.135</ele>
        <time>2012-12-14T10:01:12Z</time>
      </trkpt>
      <trkpt lat="47.30072" lon="4.91523">
        <ele>336.157</ele>
        <time>2012-12-14T10:01:23Z</time>
      </trkpt>
      <trkpt lat="47.30045" lon="4.91515">
        <ele>335.895</ele>
        <time>2012-12-14T10:01:34Z</time>
      </trkpt>
      <trkpt lat="47.30033" lon="4.91507">
        <ele>335.758</ele>
        <time>2012-12-14T10:01:45Z</time>
      </trkpt>
      <trkpt lat="47.30017" lon="4.91495">
        <ele>339.497</ele>
        <time>2012-12-14T10:01:56Z</time>
      </trkpt>
      <trkpt lat="47.30002" lon="4.91487">
        <ele>338.965</ele>
        <time>2012-12-14T10:02:07Z</time>
      </trkpt>
      <trkpt lat="47.2999" lon="4.91478">
        <ele>340.075</ele>
        <time>2012-12-14T10:02:18Z</time>
      </trkpt>
      <trkpt lat="47.29978" lon="4.91472">
        <ele>343.867</ele>
        <time>2012-12-14T10:02:29Z</time>
      </trkpt>
      <trkpt lat="47.29963" lon="4.91467">
        <ele>342.792</ele>
        <time>2012-12-14T10:02:40Z</time>
      </trkpt>
      <trkpt lat="47.29953" lon="4.91462">
        <ele>342.726</ele>
        <time>2012-12-14T10:02:51Z</time>
      </trkpt>
      <trkpt lat="47.29933" lon="4.91457">
        <ele>342.565</ele>
        <time>2012-12-14T10:03:02Z</time>
      </trkpt>
      <trkpt lat="47.29917" lon="4.91452">
        <ele>341.208</ele>
        <time>2012-12-14T10:03:13Z</time>
      </trkpt>
      <trkpt lat="47.29913" lon="4.9145">
        <ele>341.683</ele>
        <time>2012-12-14T10:03:24Z</time>
      </trkpt>
      <trkpt lat="47.29912" lon="4.9145">
        <ele>341.458</ele>
        <time>2012-12-14T10:03:35Z</time>
      </trkpt>
      <trkpt lat="47.29912" lon="4.9145">
        <ele>341.458</ele>
        <time>2012-12-14T10:03:46Z</time>
      </trkpt>
      <trkpt lat="47.29912" lon="4.9145">
        <ele>341.458</ele>
        <time>2012-12-14T10:03:57Z</time>
      </trkpt>
      <trkpt lat="47.29912" lon="4.9145">
        <ele>341.458</ele>
        <time>2012-12-14T10:04:08Z</time>
      </trkpt>
      <trkpt lat="47.2991" lon="4.9145">
        <ele>341.041</ele>
        <time>2012-12-14T10:04:19Z</time>
      </trkpt>
      <trkpt lat="47.2991" lon="4.9145">
        <ele>341.128</ele>
        <time>2012-12-14T10:04:30Z</time>
      </trkpt>
      <trkpt lat="47.29908" lon="4.91448">
        <ele>340.153</ele>
        <time>2012-12-14T10:04:41Z</time>
      </trkpt>
      <trkpt lat="47.29908" lon="4.91448">
        <ele>340.153</ele>
        <time>2012-12-14T10:04:52Z</time>
      </trkpt>
      <trkpt lat="47.29907" lon="4.9145">
        <ele>339.909</ele>
        <time>2012-12-14T10:05:03Z</time>
      </trkpt>
      <trkpt lat="47.299" lon="4.91448">
        <ele>341.147</ele>
        <time>2012-12-14T10:05:14Z</time>
      </trkpt>
      <trkpt lat="47.29883" lon="4.91452">
        <ele>345.231</ele>
        <time>2012-12-14T10:05:25Z</time>
      </trkpt>
      <trkpt lat="47.29875" lon="4.91455">
        <ele>347.32</ele>
        <time>2012-12-14T10:05:36Z</time>
      </trkpt>
      <trkpt lat="47.29858" lon="4.91463">
        <ele>353.061</ele>
        <time>2012-12-14T10:05:47Z</time>
      </trkpt>
      <trkpt lat="47.29842" lon="4.91473">
        <ele>359.846</ele>
        <time>2012-12-14T10:05:58Z</time>
      </trkpt>
      <trkpt lat="47.2983" lon="4.91478">
        <ele>363.109</ele>
        <time>2012-12-14T10:06:09Z</time>
      </trkpt>
      <trkpt lat="47.2982" lon="4.91485">
        <ele>365.801</ele>
        <time>2012-12-14T10:06:20Z</time>
      </trkpt>
      <trkpt lat="47.29808" lon="4.91495">
        <ele>367.181</ele>
        <time>2012-12-14T10:06:31Z</time>
      </trkpt>
      <trkpt lat="47.298" lon="4.91502">
        <ele>369.495</ele>
        <time>2012-12-14T10:06:42Z</time>
      </trkpt>
      <trkpt lat="47.2979" lon="4.9151">
        <ele>373.405</ele>
        <time>2012-12-14T10:06:53Z</time>
      </trkpt>
      <trkpt lat="47.29777" lon="4.91522">
        <ele>378.173</ele>
        <time>2012-12-14T10:07:04Z</time>
      </trkpt>
      <trkpt lat="47.29765" lon="4.9153">
        <ele>378.752</ele>
        <time>2012-12-14T10:07:15Z</time>
      </trkpt>
      <trkpt lat="47.2976" lon="4.91545">
        <ele>378.306</ele>
        <time>2012-12-14T10:07:26Z</time>
      </trkpt>
      <trkpt lat="47.2975" lon="4.91558">
        <ele>376.952</ele>
        <time>2012-12-14T10:07:37Z</time>
      </trkpt>
      <trkpt lat="47.29742" lon="4.91573">
        <ele>375.436</ele>
        <time>2012-12-14T10:07:48Z</time>
      </trkpt>
      <trkpt lat="47.29732" lon="4.91585">
        <ele>378.498</ele>
        <time>2012-12-14T10:07:59Z</time>
      </trkpt>
      <trkpt lat="47.29725" lon="4.916">
        <ele>380.393</ele>
        <time>2012-12-14T10:08:10Z</time>
      </trkpt>
      <trkpt lat="47.29715" lon="4.91615">
        <ele>381.894</ele>
        <time>2012-12-14T10:08:21Z</time>
      </trkpt>
      <trkpt lat="47.29707" lon="4.91628">
        <ele>384.597</ele>
        <time>2012-12-14T10:08:32Z</time>
      </trkpt>
      <trkpt lat="47.297" lon="4.91632">
        <ele>385.483</ele>
        <time>2012-12-14T10:08:43Z</time>
      </trkpt>
      <trkpt lat="47.2969" lon="4.91642">
        <ele>387.788</ele>
        <time>2012-12-14T10:08:54Z</time>
      </trkpt>
      <trkpt lat="47.29682" lon="4.91653">
        <ele>389.797</ele>
        <time>2012-12-14T10:09:05Z</time>
      </trkpt>
      <trkpt lat="47.29675" lon="4.91667">
        <ele>391.911</ele>
        <time>2012-12-14T10:09:16Z</time>
      </trkpt>
      <trkpt lat="47.2967" lon="4.9168">
        <ele>394.808</ele>
        <time>2012-12-14T10:09:27Z</time>
      </trkpt>
      <trkpt lat="47.29665" lon="4.91697">
        <ele>398.736</ele>
        <time>2012-12-14T10:09:38Z</time>
      </trkpt>
      <trkpt lat="47.29662" lon="4.91712">
        <ele>401.98</ele>
        <time>2012-12-14T10:09:49Z</time>
      </trkpt>
      <trkpt lat="47.29658" lon="4.91723">
        <ele>405.061</ele>
        <time>2012-12-14T10:10:00Z</time>
      </trkpt>
      <trkpt lat="47.29657" lon="4.91732">
        <ele>406.15</ele>
        <time>2012-12-14T10:10:11Z</time>
      </trkpt>
      <trkpt lat="47.29653" lon="4.91748">
        <ele>407.563</ele>
        <time>2012-12-14T10:10:22Z</time>
      </trkpt>
      <trkpt lat="47.29652" lon="4.9176">
        <ele>408.831</ele>
        <time>2012-12-14T10:10:33Z</time>
      </trkpt>
      <trkpt lat="47.29648" lon="4.9177">
        <ele>410.548</ele>
        <time>2012-12-14T10:10:44Z</time>
      </trkpt>
      <trkpt lat="47.29643" lon="4.91793">
        <ele>412.456</ele>
        <time>2012-12-14T10:10:55Z</time>
      </trkpt>
      <trkpt lat="47.2964" lon="4.91812">
        <ele>414.508</ele>
        <time>2012-12-14T10:11:06Z</time>
      </trkpt>
      <trkpt lat="47.29638" lon="4.91828">
        <ele>418.754</ele>
        <time>2012-12-14T10:11:17Z</time>
      </trkpt>
      <trkpt lat="47.29637" lon="4.9184">
        <ele>423.321</ele>
        <time>2012-12-14T10:11:28Z</time>
      </trkpt>
      <trkpt lat="47.29635" lon="4.91848">
        <ele>423.246</ele>
        <time>2012-12-14T10:11:39Z</time>
      </trkpt>
      <trkpt lat="47.29633" lon="4.91858">
        <ele>422.574</ele>
        <time>2012-12-14T10:11:50Z</time>
      </trkpt>
      <trkpt lat="47.29633" lon="4.91863">
        <ele>422.058</ele>
        <time>2012-12-14T10:12:01Z</time>
      </trkpt>
      <trkpt lat="47.29632" lon="4.9187">
        <ele>423.089</ele>
        <time>2012-12-14T10:12:12Z</time>
      </trkpt>
      <trkpt lat="47.29628" lon="4.91878">
        <ele>425.246</ele>
        <time>2012-12-14T10:12:23Z</time>
      </trkpt>
      <trkpt lat="47.29622" lon="4.91888">
        <ele>426.448</ele>
        <time>2012-12-14T10:12:34Z</time>
      </trkpt>
      <trkpt lat="47.29618" lon="4.919">
        <ele>425.809</ele>
        <time>2012-12-14T10:12:45Z</time>
      </trkpt>
      <trkpt lat="47.29617" lon="4.9191">
        <ele>426.011</ele>
        <time>2012-12-14T10:12:56Z</time>
      </trkpt>
      <trkpt lat="47.29612" lon="4.91922">
        <ele>427.01</ele>
        <time>2012-12-14T10:13:07Z</time>
      </trkpt>
      <trkpt lat="47.2961" lon="4.91932">
        <ele>429.656</ele>
        <time>2012-12-14T10:13:18Z</time>
      </trkpt>
      <trkpt lat="47.29605" lon="4.9194">
        <ele>432.604</ele>
        <time>2012-12-14T10:13:29Z</time>
      </trkpt>
      <trkpt lat="47.29605" lon="4.91945">
        <ele>435.915</ele>
        <time>2012-12-14T10:13:40Z</time>
      </trkpt>
      <trkpt lat="47.296" lon="4.91955">
        <ele>438.103</ele>
        <time>2012-12-14T10:13:51Z</time>
      </trkpt>
      <trkpt lat="47.29598" lon="4.9196">
        <ele>439.688</ele>
        <time>2012-12-14T10:14:02Z</time>
      </trkpt>
      <trkpt lat="47.29598" lon="4.91973">
        <ele>442.839</ele>
        <time>2012-12-14T10:14:13Z</time>
      </trkpt>
      <trkpt lat="47.29595" lon="4.9198">
        <ele>445.46</ele>
        <time>2012-12-14T10:14:24Z</time>
      </trkpt>
      <trkpt lat="47.29592" lon="4.91987">
        <ele>448.598</ele>
        <time>2012-12-14T10:14:35Z</time>
      </trkpt>
      <trkpt lat="47.29588" lon="4.91988">
        <ele>449.881</ele>
        <time>2012-12-14T10:14:46Z</time>
      </trkpt>
      <trkpt lat="47.29588" lon="4.91988">
        <ele>449.827</ele>
        <time>2012-12-14T10:14:57Z</time>
      </trkpt>
      <trkpt lat="47.29588" lon="4.9199">
        <ele>448.996</ele>
        <time>2012-12-14T10:15:08Z</time>
      </trkpt>
      <trkpt lat="47.29588" lon="4.9199">
        <ele>448.856</ele>
        <time>2012-12-14T10:15:19Z</time>
      </trkpt>
      <trkpt lat="47.29588" lon="4.91992">
        <ele>448.77</ele>
        <time>2012-12-14T10:15:30Z</time>
      </trkpt>
      <trkpt lat="47.29587" lon="4.91993">
        <ele>448.996</ele>
        <time>2012-12-14T10:15:41Z</time>
      </trkpt>
      <trkpt lat="47.29587" lon="4.91993">
        <ele>448.703</ele>
        <time>2012-12-14T10:15:52Z</time>
      </trkpt>
      <trkpt lat="47.29587" lon="4.91993">
        <ele>448.703</ele>
        <time>2012-12-14T10:16:03Z</time>
      </trkpt>
      <trkpt lat="47.29587" lon="4.91993">
        <ele>448.703</ele>
        <time>2012-12-14T10:16:14Z</time>
      </trkpt>
      <trkpt lat="47.29587" lon="4.91993">
        <ele>448.62</ele>
        <time>2012-12-14T10:16:25Z</time>
      </trkpt>
      <trkpt lat="47.29587" lon="4.91995">
        <ele>449.422</ele>
        <time>2012-12-14T10:16:36Z</time>
      </trkpt>
      <trkpt lat="47.29585" lon="4.91995">
        <ele>449.919</ele>
        <time>2012-12-14T10:16:47Z</time>
      </trkpt>
      <trkpt lat="47.29583" lon="4.92002">
        <ele>452.485</ele>
        <time>2012-12-14T10:16:58Z</time>
      </trkpt>
      <trkpt lat="47.29585" lon="4.92012">
        <ele>454.231</ele>
        <time>2012-12-14T10:17:09Z</time>
      </trkpt>
      <trkpt lat="47.2959" lon="4.92018">
        <ele>457.567</ele>
        <time>2012-12-14T10:17:20Z</time>
      </trkpt>
      <trkpt lat="47.29592" lon="4.92023">
        <ele>458.202</ele>
        <time>2012-12-14T10:17:31Z</time>
      </trkpt>
      <trkpt lat="47.29597" lon="4.92027">
        <ele>459.047</ele>
        <time>2012-12-14T10:17:42Z</time>
      </trkpt>
      <trkpt lat="47.29602" lon="4.92032">
        <ele>460.381</ele>
        <time>2012-12-14T10:17:53Z</time>
      </trkpt>
      <trkpt lat="47.29608" lon="4.92035">
        <ele>459.892</ele>
        <time>2012-12-14T10:18:04Z</time>
      </trkpt>
      <trkpt lat="47.29618" lon="4.92038">
        <ele>459.491</ele>
        <time>2012-12-14T10:18:15Z</time>
      </trkpt>
      <trkpt lat="47.29632" lon="4.92037">
        <ele>459.877</ele>
        <time>2012-12-14T10:18:26Z</time>
      </trkpt>
      <trkpt lat="47.29647" lon="4.92033">
        <ele>460.289</ele>
        <time>2012-12-14T10:18:37Z</time>
      </trkpt>
      <trkpt lat="47.29665" lon="4.92032">
        <ele>459.525</ele>
        <time>2012-12-14T10:18:48Z</time>
      </trkpt>
      <trkpt lat="47.2968" lon="4.9203">
        <ele>460.287</ele>
        <time>2012-12-14T10:18:59Z</time>
      </trkpt>
      <trkpt lat="47.29688" lon="4.9203">
        <ele>460.744</ele>
        <time>2012-12-14T10:19:10Z</time>
      </trkpt>
      <trkpt lat="47.29698" lon="4.92032">
        <ele>461.283</ele>
        <time>2012-12-14T10:19:21Z</time>
      </trkpt>
      <trkpt lat="47.2971" lon="4.92028">
        <ele>460.926</ele>
        <time>2012-12-14T10:19:32Z</time>
      </trkpt>
      <trkpt lat="47.29718" lon="4.92023">
        <ele>463.436</ele>
        <time>2012-12-14T10:19:43Z</time>
      </trkpt>
      <trkpt lat="47.2973" lon="4.92018">
        <ele>467.506</ele>
        <time>2012-12-14T10:19:54Z</time>
      </trkpt>
      <trkpt lat="47.29742" lon="4.92015">
        <ele>470.093</ele>
        <time>2012-12-14T10:20:05Z</time>
      </trkpt>
      <trkpt lat="47.29755" lon="4.92012">
        <ele>470.193</ele>
        <time>2012-12-14T10:20:16Z</time>
      </trkpt>
      <trkpt lat="47.29765" lon="4.92012">
        <ele>471.269</ele>
        <time>2012-12-14T10:20:27Z</time>
      </trkpt>
      <trkpt lat="47.29777" lon="4.9201">
        <ele>471.319</ele>
        <time>2012-12-14T10:20:38Z</time>
      </trkpt>
      <trkpt lat="47.29788" lon="4.92008">
        <ele>471.275</ele>
        <time>2012-12-14T10:20:49Z</time>
      </trkpt>
      <trkpt lat="47.29798" lon="4.92017">
        <ele>470.5</ele>
        <time>2012-12-14T10:21:00Z</time>
      </trkpt>
      <trkpt lat="47.29805" lon="4.92023">
        <ele>472.196</ele>
        <time>2012-12-14T10:21:11Z</time>
      </trkpt>
      <trkpt lat="47.29813" lon="4.92038">
        <ele>473.244</ele>
        <time>2012-12-14T10:21:22Z</time>
      </trkpt>
      <trkpt lat="47.2982" lon="4.92055">
        <ele>473.571</ele>
        <time>2012-12-14T10:21:33Z</time>
      </trkpt>
      <trkpt lat="47.29827" lon="4.9207">
        <ele>475.304</ele>
        <time>2012-12-14T10:21:44Z</time>
      </trkpt>
      <trkpt lat="47.29832" lon="4.92082">
        <ele>477.19</ele>
        <time>2012-12-14T10:21:55Z</time>
      </trkpt>
      <trkpt lat="47.29837" lon="4.92095">
        <ele>478.131</ele>
        <time>2012-12-14T10:22:06Z</time>
      </trkpt>
      <trkpt lat="47.29843" lon="4.92108">
        <ele>479.183</ele>
        <time>2012-12-14T10:22:17Z</time>
      </trkpt>
      <trkpt lat="47.29847" lon="4.92117">
        <ele>480.543</ele>
        <time>2012-12-14T10:22:28Z</time>
      </trkpt>
      <trkpt lat="47.2985" lon="4.92127">
        <ele>483.395</ele>
        <time>2012-12-14T10:22:39Z</time>
      </trkpt>
      <trkpt lat="47.29853" lon="4.92142">
        <ele>485.446</ele>
        <time>2012-12-14T10:22:50Z</time>
      </trkpt>
      <trkpt lat="47.29858" lon="4.92155">
        <ele>487.512</ele>
        <time>2012-12-14T10:23:01Z</time>
      </trkpt>
      <trkpt lat="47.2986" lon="4.92168">
        <ele>488.358</ele>
        <time>2012-12-14T10:23:12Z</time>
      </trkpt>
      <trkpt lat="47.29863" lon="4.9218">
        <ele>489.992</ele>
        <time>2012-12-14T10:23:23Z</time>
      </trkpt>
      <trkpt lat="47.29868" lon="4.92198">
        <ele>492.008</ele>
        <time>2012-12-14T10:23:34Z</time>
      </trkpt>
      <trkpt lat="47.29873" lon="4.92215">
        <ele>494.367</ele>
        <time>2012-12-14T10:23:45Z</time>
      </trkpt>
      <trkpt lat="47.29877" lon="4.92223">
        <ele>495.725</ele>
        <time>2012-12-14T10:23:56Z</time>
      </trkpt>
      <trkpt lat="47.29882" lon="4.92238">
        <ele>494.829</ele>
        <time>2012-12-14T10:24:07Z</time>
      </trkpt>
      <trkpt lat="47.29887" lon="4.9226">
        <ele>495.833</ele>
        <time>2012-12-14T10:24:18Z</time>
      </trkpt>
      <trkpt lat="47.29895" lon="4.9228">
        <ele>497.455</ele>
        <time>2012-12-14T10:24:29Z</time>
      </trkpt>
      <trkpt lat="47.299" lon="4.92297">
        <ele>500.26</ele>
        <time>2012-12-14T10:24:40Z</time>
      </trkpt>
      <trkpt lat="47.29903" lon="4.92313">
        <ele>505.288</ele>
        <time>2012-12-14T10:24:51Z</time>
      </trkpt>
      <trkpt lat="47.29908" lon="4.92327">
        <ele>507.862</ele>
        <time>2012-12-14T10:25:02Z</time>
      </trkpt>
      <trkpt lat="47.29913" lon="4.92343">
        <ele>509.752</ele>
        <time>2012-12-14T10:25:13Z</time>
      </trkpt>
      <trkpt lat="47.29917" lon="4.92353">
        <ele>510.473</ele>
        <time>2012-12-14T10:25:24Z</time>
      </trkpt>
      <trkpt lat="47.29922" lon="4.92367">
        <ele>512.523</ele>
        <time>2012-12-14T10:25:35Z</time>
      </trkpt>
      <trkpt lat="47.29928" lon="4.92385">
        <ele>511.973</ele>
        <time>2012-12-14T10:25:46Z</time>
      </trkpt>
      <trkpt lat="47.29937" lon="4.92412">
        <ele>511.83</ele>
        <time>2012-12-14T10:25:57Z</time>
      </trkpt>
      <trkpt lat="47.29942" lon="4.92432">
        <ele>514.227</ele>
        <time>2012-12-14T10:26:08Z</time>
      </trkpt>
      <trkpt lat="47.29947" lon="4.92453">
        <ele>517.302</ele>
        <time>2012-12-14T10:26:19Z</time>
      </trkpt>
      <trkpt lat="47.2995" lon="4.9247">
        <ele>520.682</ele>
        <time>2012-12-14T10:26:30Z</time>
      </trkpt>
      <trkpt lat="47.29955" lon="4.92487">
        <ele>521.524</ele>
        <time>2012-12-14T10:26:41Z</time>
      </trkpt>
      <trkpt lat="47.29962" lon="4.925">
        <ele>524.175</ele>
        <time>2012-12-14T10:26:52Z</time>
      </trkpt>
      <trkpt lat="47.29968" lon="4.92515">
        <ele>524.017</ele>
        <time>2012-12-14T10:27:03Z</time>
      </trkpt>
      <trkpt lat="47.29975" lon="4.92533">
        <ele>524.431</ele>
        <time>2012-12-14T10:27:14Z</time>
      </trkpt>
      <trkpt lat="47.29983" lon="4.92553">
        <ele>522.664</ele>
        <time>2012-12-14T10:27:25Z</time>
      </trkpt>
      <trkpt lat="47.29992" lon="4.92575">
        <ele>522.692</ele>
        <time>2012-12-14T10:27:36Z</time>
      </trkpt>
      <trkpt lat="47.29998" lon="4.92595">
        <ele>522.007</ele>
        <time>2012-12-14T10:27:47Z</time>
      </trkpt>
      <trkpt lat="47.30002" lon="4.92613">
        <ele>521.727</ele>
        <time>2012-12-14T10:27:58Z</time>
      </trkpt>
      <trkpt lat="47.30012" lon="4.92637">
        <ele>519.481</ele>
        <time>2012-12-14T10:28:09Z</time>
      </trkpt>
      <trkpt lat="47.30018" lon="4.92662">
        <ele>517.838</ele>
        <time>2012-12-14T10:28:20Z</time>
      </trkpt>
      <trkpt lat="47.30027" lon="4.92685">
        <ele>518.335</ele>
        <time>2012-12-14T10:28:31Z</time>
      </trkpt>
      <trkpt lat="47.30033" lon="4.92707">
        <ele>517.938</ele>
        <time>2012-12-14T10:28:42Z</time>
      </trkpt>
      <trkpt lat="47.30038" lon="4.92732">
        <ele>516.564</ele>
        <time>2012-12-14T10:28:53Z</time>
      </trkpt>
      <trkpt lat="47.30042" lon="4.92757">
        <ele>514.034</ele>
        <time>2012-12-14T10:29:04Z</time>
      </trkpt>
      <trkpt lat="47.30043" lon="4.92777">
        <ele>512.625</ele>
        <time>2012-12-14T10:29:15Z</time>
      </trkpt>
      <trkpt lat="47.30047" lon="4.928">
        <ele>512.206</ele>
        <time>2012-12-14T10:29:26Z</time>
      </trkpt>
      <trkpt lat="47.30048" lon="4.92818">
        <ele>513.076</ele>
        <time>2012-12-14T10:29:37Z</time>
      </trkpt>
      <trkpt lat="47.30052" lon="4.9284">
        <ele>513.04</ele>
        <time>2012-12-14T10:29:48Z</time>
      </trkpt>
      <trkpt lat="47.30053" lon="4.92858">
        <ele>513.003</ele>
        <time>2012-12-14T10:29:59Z</time>
      </trkpt>
      <trkpt lat="47.30057" lon="4.92873">
        <ele>514.656</ele>
        <time>2012-12-14T10:30:10Z</time>
      </trkpt>
      <trkpt lat="47.30057" lon="4.92893">
        <ele>515.728</ele>
        <time>2012-12-14T10:30:21Z</time>
      </trkpt>
      <trkpt lat="47.30057" lon="4.92913">
        <ele>515.186</ele>
        <time>2012-12-14T10:30:32Z</time>
      </trkpt>
      <trkpt lat="47.30053" lon="4.92933">
        <ele>516.878</ele>
        <time>2012-12-14T10:30:43Z</time>
      </trkpt>
      <trkpt lat="47.30052" lon="4.92948">
        <ele>518.773</ele>
        <time>2012-12-14T10:30:54Z</time>
      </trkpt>
      <trkpt lat="47.30047" lon="4.92968">
        <ele>518.115</ele>
        <time>2012-12-14T10:31:05Z</time>
      </trkpt>
      <trkpt lat="47.30042" lon="4.92992">
        <ele>518.533</ele>
        <time>2012-12-14T10:31:16Z</time>
      </trkpt>
      <trkpt lat="47.30037" lon="4.93013">
        <ele>519.794</ele>
        <time>2012-12-14T10:31:27Z</time>
      </trkpt>
      <trkpt lat="47.30035" lon="4.9303">
        <ele>519.95</ele>
        <time>2012-12-14T10:31:38Z</time>
      </trkpt>
      <trkpt lat="47.30028" lon="4.93042">
        <ele>520.733</ele>
        <time>2012-12-14T10:31:49Z</time>
      </trkpt>
      <trkpt lat="47.30027" lon="4.93055">
        <ele>521.154</ele>
        <time>2012-12-14T10:32:00Z</time>
      </trkpt>
      <trkpt lat="47.30023" lon="4.93075">
        <ele>520.874</ele>
        <time>2012-12-14T10:32:11Z</time>
      </trkpt>
      <trkpt lat="47.3002" lon="4.93092">
        <ele>520.076</ele>
        <time>2012-12-14T10:32:22Z</time>
      </trkpt>
      <trkpt lat="47.30015" lon="4.93108">
        <ele>519.01</ele>
        <time>2012-12-14T10:32:33Z</time>
      </trkpt>
      <trkpt lat="47.30007" lon="4.9312">
        <ele>516.36</ele>
        <time>2012-12-14T10:32:44Z</time>
      </trkpt>
      <trkpt lat="47.29995" lon="4.9314">
        <ele>517.419</ele>
        <time>2012-12-14T10:32:55Z</time>
      </trkpt>
      <trkpt lat="47.29988" lon="4.93162">
        <ele>520.1</ele>
        <time>2012-12-14T10:33:06Z</time>
      </trkpt>
      <trkpt lat="47.29988" lon="4.9317">
        <ele>520.588</ele>
        <time>2012-12-14T10:33:17Z</time>
      </trkpt>
      <trkpt lat="47.29985" lon="4.93187">
        <ele>521.511</ele>
        <time>2012-12-14T10:33:28Z</time>
      </trkpt>
      <trkpt lat="47.2998" lon="4.932">
        <ele>522.178</ele>
        <time>2012-12-14T10:33:39Z</time>
      </trkpt>
      <trkpt lat="47.29978" lon="4.9321">
        <ele>523.516</ele>
        <time>2012-12-14T10:33:50Z</time>
      </trkpt>
      <trkpt lat="47.29975" lon="4.93223">
        <ele>523.366</ele>
        <time>2012-12-14T10:34:01Z</time>
      </trkpt>
      <trkpt lat="47.29972" lon="4.93237">
        <ele>525.281</ele>
        <time>2012-12-14T10:34:12Z</time>
      </trkpt>
      <trkpt lat="47.29965" lon="4.93252">
        <ele>527.964</ele>
        <time>2012-12-14T10:34:23Z</time>
      </trkpt>
      <trkpt lat="47.2996" lon="4.93265">
        <ele>529.445</ele>
        <time>2012-12-14T10:34:34Z</time>
      </trkpt>
      <trkpt lat="47.29955" lon="4.93273">
        <ele>529.841</ele>
        <time>2012-12-14T10:34:45Z</time>
      </trkpt>
      <trkpt lat="47.29952" lon="4.93285">
        <ele>530.948</ele>
        <time>2012-12-14T10:34:56Z</time>
      </trkpt>
      <trkpt lat="47.29942" lon="4.93295">
        <ele>529.961</ele>
        <time>2012-12-14T10:35:07Z</time>
      </trkpt>
      <trkpt lat="47.29935" lon="4.9331">
        <ele>531.126</ele>
        <time>2012-12-14T10:35:18Z</time>
      </trkpt>
      <trkpt lat="47.29932" lon="4.93322">
        <ele>532.88</ele>
        <time>2012-12-14T10:35:29Z</time>
      </trkpt>
      <trkpt lat="47.29928" lon="4.93332">
        <ele>532.754</ele>
        <time>2012-12-14T10:35:40Z</time>
      </trkpt>
      <trkpt lat="47.29922" lon="4.93348">
        <ele>532.322</ele>
        <time>2012-12-14T10:35:51Z</time>
      </trkpt>
      <trkpt lat="47.29913" lon="4.93367">
        <ele>530.205</ele>
        <time>2012-12-14T10:36:02Z</time>
      </trkpt>
      <trkpt lat="47.2991" lon="4.93378">
        <ele>530.613</ele>
        <time>2012-12-14T10:36:13Z</time>
      </trkpt>
      <trkpt lat="47.29902" lon="4.93392">
        <ele>533.144</ele>
        <time>2012-12-14T10:36:24Z</time>
      </trkpt>
      <trkpt lat="47.29892" lon="4.93402">
        <ele>533.61</ele>
        <time>2012-12-14T10:36:35Z</time>
      </trkpt>
      <trkpt lat="47.29883" lon="4.93413">
        <ele>537.244</ele>
        <time>2012-12-14T10:36:46Z</time>
      </trkpt>
      <trkpt lat="47.29877" lon="4.93423">
        <ele>538.517</ele>
        <time>2012-12-14T10:36:57Z</time>
      </trkpt>
      <trkpt lat="47.2987" lon="4.93432">
        <ele>541.278</ele>
        <time>2012-12-14T10:37:08Z</time>
      </trkpt>
      <trkpt lat="47.29863" lon="4.93437">
        <ele>540.884</ele>
        <time>2012-12-14T10:37:19Z</time>
      </trkpt>
      <trkpt lat="47.29858" lon="4.93443">
        <ele>540.845</ele>
        <time>2012-12-14T10:37:30Z</time>
      </trkpt>
      <trkpt lat="47.2985" lon="4.93452">
        <ele>542.959</ele>
        <time>2012-12-14T10:37:41Z</time>
      </trkpt>
      <trkpt lat="47.29842" lon="4.93462">
        <ele>542.583</ele>
        <time>2012-12-14T10:37:52Z</time>
      </trkpt>
      <trkpt lat="47.29828" lon="4.9347">
        <ele>544.354</ele>
        <time>2012-12-14T10:38:03Z</time>
      </trkpt>
      <trkpt lat="47.2982" lon="4.93473">
        <ele>544.461</ele>
        <time>2012-12-14T10:38:14Z</time>
      </trkpt>
      <trkpt lat="47.29815" lon="4.9348">
        <ele>547.069</ele>
        <time>2012-12-14T10:38:25Z</time>
      </trkpt>
      <trkpt lat="47.29803" lon="4.93485">
        <ele>545.201</ele>
        <time>2012-12-14T10:38:36Z</time>
      </trkpt>
      <trkpt lat="47.29795" lon="4.93487">
        <ele>544.96</ele>
        <time>2012-12-14T10:38:47Z</time>
      </trkpt>
      <trkpt lat="47.29787" lon="4.93488">
        <ele>546.044</ele>
        <time>2012-12-14T10:38:58Z</time>
      </trkpt>
      <trkpt lat="47.29777" lon="4.93492">
        <ele>548.334</ele>
        <time>2012-12-14T10:39:09Z</time>
      </trkpt>
      <trkpt lat="47.29767" lon="4.9349">
        <ele>549.515</ele>
        <time>2012-12-14T10:39:20Z</time>
      </trkpt>
      <trkpt lat="47.29762" lon="4.9349">
        <ele>550.28</ele>
        <time>2012-12-14T10:39:31Z</time>
      </trkpt>
      <trkpt lat="47.2976" lon="4.9349">
        <ele>550.26</ele>
        <time>2012-12-14T10:39:42Z</time>
      </trkpt>
      <trkpt lat="47.2976" lon="4.9349">
        <ele>550.195</ele>
        <time>2012-12-14T10:39:53Z</time>
      </trkpt>
      <trkpt lat="47.29753" lon="4.93493">
        <ele>548.758</ele>
        <time>2012-12-14T10:40:04Z</time>
      </trkpt>
      <trkpt lat="47.29743" lon="4.93497">
        <ele>548.893</ele>
        <time>2012-12-14T10:40:15Z</time>
      </trkpt>
      <trkpt lat="47.29737" lon="4.935">
        <ele>547.614</ele>
        <time>2012-12-14T10:40:26Z</time>
      </trkpt>
      <trkpt lat="47.29727" lon="4.93507">
        <ele>548.053</ele>
        <time>2012-12-14T10:40:37Z</time>
      </trkpt>
      <trkpt lat="47.29708" lon="4.93515">
        <ele>544.634</ele>
        <time>2012-12-14T10:40:48Z</time>
      </trkpt>
      <trkpt lat="47.29693" lon="4.93525">
        <ele>540.917</ele>
        <time>2012-12-14T10:40:59Z</time>
      </trkpt>
      <trkpt lat="47.29673" lon="4.9354">
        <ele>542.285</ele>
        <time>2012-12-14T10:41:10Z</time>
      </trkpt>
      <trkpt lat="47.2966" lon="4.93548">
        <ele>539.923</ele>
        <time>2012-12-14T10:41:21Z</time>
      </trkpt>
      <trkpt lat="47.29638" lon="4.93558">
        <ele>539.487</ele>
        <time>2012-12-14T10:41:32Z</time>
      </trkpt>
      <trkpt lat="47.2962" lon="4.93558">
        <ele>540.7</ele>
        <time>2012-12-14T10:41:43Z</time>
      </trkpt>
      <trkpt lat="47.29595" lon="4.93558">
        <ele>537.975</ele>
        <time>2012-12-14T10:41:54Z</time>
      </trkpt>
      <trkpt lat="47.29575" lon="4.93562">
        <ele>541.466</ele>
        <time>2012-12-14T10:42:05Z</time>
      </trkpt>
      <trkpt lat="47.29562" lon="4.93553">
        <ele>543.027</ele>
        <time>2012-12-14T10:42:16Z</time>
      </trkpt>
      <trkpt lat="47.29552" lon="4.93538">
        <ele>542.351</ele>
        <time>2012-12-14T10:42:27Z</time>
      </trkpt>
      <trkpt lat="47.29545" lon="4.93528">
        <ele>545.34</ele>
        <time>2012-12-14T10:42:38Z</time>
      </trkpt>
      <trkpt lat="47.29538" lon="4.93513">
        <ele>545.545</ele>
        <time>2012-12-14T10:42:49Z</time>
      </trkpt>
      <trkpt lat="47.29532" lon="4.93503">
        <ele>548.07</ele>
        <time>2012-12-14T10:43:00Z</time>
      </trkpt>
      <trkpt lat="47.29527" lon="4.93492">
        <ele>547.182</ele>
        <time>2012-12-14T10:43:11Z</time>
      </trkpt>
      <trkpt lat="47.29522" lon="4.93487">
        <ele>548.637</ele>
        <time>2012-12-14T10:43:22Z</time>
      </trkpt>
      <trkpt lat="47.2952" lon="4.93477">
        <ele>548.405</ele>
        <time>2012-12-14T10:43:33Z</time>
      </trkpt>
      <trkpt lat="47.29517" lon="4.93465">
        <ele>549.796</ele>
        <time>2012-12-14T10:43:44Z</time>
      </trkpt>
      <trkpt lat="47.29513" lon="4.93455">
        <ele>551.518</ele>
        <time>2012-12-14T10:43:55Z</time>
      </trkpt>
      <trkpt lat="47.29507" lon="4.93447">
        <ele>553.41</ele>
        <time>2012-12-14T10:44:06Z</time>
      </trkpt>
      <trkpt lat="47.29498" lon="4.93433">
        <ele>557.328</ele>
        <time>2012-12-14T10:44:17Z</time>
      </trkpt>
      <trkpt lat="47.2949" lon="4.93423">
        <ele>563.041</ele>
        <time>2012-12-14T10:44:28Z</time>
      </trkpt>
      <trkpt lat="47.29485" lon="4.93413">
        <ele>568.668</ele>
        <time>2012-12-14T10:44:39Z</time>
      </trkpt>
      <trkpt lat="47.29477" lon="4.93403">
        <ele>573.136</ele>
        <time>2012-12-14T10:44:50Z</time>
      </trkpt>
      <trkpt lat="47.2947" lon="4.93392">
        <ele>577.487</ele>
        <time>2012-12-14T10:45:01Z</time>
      </trkpt>
      <trkpt lat="47.29465" lon="4.93383">
        <ele>578.554</ele>
        <time>2012-12-14T10:45:12Z</time>
      </trkpt>
      <trkpt lat="47.29458" lon="4.93377">
        <ele>582.039</ele>
        <time>2012-12-14T10:45:23Z</time>
      </trkpt>
      <trkpt lat="47.29452" lon="4.9337">
        <ele>583.299</ele>
        <time>2012-12-14T10:45:34Z</time>
      </trkpt>
      <trkpt lat="47.29443" lon="4.9336">
        <ele>583.28</ele>
        <time>2012-12-14T10:45:45Z</time>
      </trkpt>
      <trkpt lat="47.29435" lon="4.93353">
        <ele>583.803</ele>
        <time>2012-12-14T10:45:56Z</time>
      </trkpt>
      <trkpt lat="47.29427" lon="4.93342">
        <ele>585.284</ele>
        <time>2012-12-14T10:46:07Z</time>
      </trkpt>
      <trkpt lat="47.29415" lon="4.93332">
        <ele>585.768</ele>
        <time>2012-12-14T10:46:18Z</time>
      </trkpt>
      <trkpt lat="47.29405" lon="4.9332">
        <ele>587.784</ele>
        <time>2012-12-14T10:46:29Z</time>
      </trkpt>
      <trkpt lat="47.29393" lon="4.93305">
        <ele>591.205</ele>
        <time>2012-12-14T10:46:40Z</time>
      </trkpt>
      <trkpt lat="47.29387" lon="4.93298">
        <ele>594.648</ele>
        <time>2012-12-14T10:46:51Z</time>
      </trkpt>
      <trkpt lat="47.2938" lon="4.93292">
        <ele>596.36</ele>
        <time>2012-12-14T10:47:02Z</time>
      </trkpt>
      <trkpt lat="47.29373" lon="4.93282">
        <ele>595.338</ele>
        <time>2012-12-14T10:47:13Z</time>
      </trkpt>
      <trkpt lat="47.29362" lon="4.9327">
        <ele>595.055</ele>
        <time>2012-12-14T10:47:24Z</time>
      </trkpt>
      <trkpt lat="47.29347" lon="4.9326">
        <ele>597.161</ele>
        <time>2012-12-14T10:47:35Z</time>
      </trkpt>
      <trkpt lat="47.29337" lon="4.93247">
        <ele>597.388</ele>
        <time>2012-12-14T10:47:46Z</time>
      </trkpt>
      <trkpt lat="47.29325" lon="4.93233">
        <ele>598.841</ele>
        <time>2012-12-14T10:47:57Z</time>
      </trkpt>
      <trkpt lat="47.29313" lon="4.93218">
        <ele>598.708</ele>
        <time>2012-12-14T10:48:08Z</time>
      </trkpt>
      <trkpt lat="47.293" lon="4.93202">
        <ele>598.251</ele>
        <time>2012-12-14T10:48:19Z</time>
      </trkpt>
      <trkpt lat="47.29287" lon="4.93185">
        <ele>599.598</ele>
        <time>2012-12-14T10:48:30Z</time>
      </trkpt>
      <trkpt lat="47.29277" lon="4.9317">
        <ele>598.4</ele>
        <time>2012-12-14T10:48:41Z</time>
      </trkpt>
      <trkpt lat="47.29268" lon="4.93157">
        <ele>598.431</ele>
        <time>2012-12-14T10:48:52Z</time>
      </trkpt>
      <trkpt lat="47.29267" lon="4.93157">
        <ele>597.722</ele>
        <time>2012-12-14T10:49:03Z</time>
      </trkpt>
      <trkpt lat="47.29267" lon="4.93155">
        <ele>597.049</ele>
        <time>2012-12-14T10:49:14Z</time>
      </trkpt>
      <trkpt lat="47.29267" lon="4.93155">
        <ele>597.049</ele>
        <time>2012-12-14T10:49:25Z</time>
      </trkpt>
      <trkpt lat="47.29267" lon="4.93155">
        <ele>595.822</ele>
        <time>2012-12-14T10:49:36Z</time>
      </trkpt>
      <trkpt lat="47.29267" lon="4.93153">
        <ele>595.514</ele>
        <time>2012-12-14T10:49:47Z</time>
      </trkpt>
      <trkpt lat="47.29267" lon="4.93153">
        <ele>595.389</ele>
        <time>2012-12-14T10:49:58Z</time>
      </trkpt>
      <trkpt lat="47.29267" lon="4.93153">
        <ele>595.389</ele>
        <time>2012-12-14T10:50:09Z</time>
      </trkpt>
      <trkpt lat="47.29267" lon="4.93153">
        <ele>595.389</ele>
        <time>2012-12-14T10:50:20Z</time>
      </trkpt>
      <trkpt lat="47.29267" lon="4.93153">
        <ele>595.389</ele>
        <time>2012-12-14T10:50:31Z</time>
      </trkpt>
      <trkpt lat="47.29263" lon="4.93147">
        <ele>593.904</ele>
        <time>2012-12-14T10:50:42Z</time>
      </trkpt>
      <trkpt lat="47.29263" lon="4.93147">
        <ele>593.904</ele>
        <time>2012-12-14T10:50:53Z</time>
      </trkpt>
      <trkpt lat="47.29263" lon="4.93147">
        <ele>593.904</ele>
        <time>2012-12-14T10:51:04Z</time>
      </trkpt>
      <trkpt lat="47.2926" lon="4.93143">
        <ele>593.785</ele>
        <time>2012-12-14T10:51:15Z</time>
      </trkpt>
      <trkpt lat="47.2925" lon="4.93133">
        <ele>594.596</ele>
        <time>2012-12-14T10:51:26Z</time>
      </trkpt>
      <trkpt lat="47.29238" lon="4.93117">
        <ele>596.561</ele>
        <time>2012-12-14T10:51:37Z</time>
      </trkpt>
      <trkpt lat="47.29228" lon="4.93098">
        <ele>597.697</ele>
        <time>2012-12-14T10:51:48Z</time>
      </trkpt>
      <trkpt lat="47.29217" lon="4.93082">
        <ele>597.446</ele>
        <time>2012-12-14T10:51:59Z</time>
      </trkpt>
      <trkpt lat="47.2921" lon="4.93067">
        <ele>602.022</ele>
        <time>2012-12-14T10:52:10Z</time>
      </trkpt>
      <trkpt lat="47.29202" lon="4.9305">
        <ele>603.568</ele>
        <time>2012-12-14T10:52:21Z</time>
      </trkpt>
      <trkpt lat="47.29193" lon="4.93042">
        <ele>606.073</ele>
        <time>2012-12-14T10:52:32Z</time>
      </trkpt>
      <trkpt lat="47.29187" lon="4.93022">
        <ele>604.897</ele>
        <time>2012-12-14T10:52:43Z</time>
      </trkpt>
      <trkpt lat="47.29175" lon="4.93007">
        <ele>603.304</ele>
        <time>2012-12-14T10:52:54Z</time>
      </trkpt>
      <trkpt lat="47.29168" lon="4.92983">
        <ele>601.417</ele>
        <time>2012-12-14T10:53:05Z</time>
      </trkpt>
      <trkpt lat="47.2916" lon="4.92965">
        <ele>601.765</ele>
        <time>2012-12-14T10:53:16Z</time>
      </trkpt>
      <trkpt lat="47.29152" lon="4.92947">
        <ele>602.109</ele>
        <time>2012-12-14T10:53:27Z</time>
      </trkpt>
      <trkpt lat="47.29142" lon="4.92932">
        <ele>600.582</ele>
        <time>2012-12-14T10:53:38Z</time>
      </trkpt>
      <trkpt lat="47.29133" lon="4.92913">
        <ele>600.092</ele>
        <time>2012-12-14T10:53:49Z</time>
      </trkpt>
      <trkpt lat="47.29123" lon="4.92897">
        <ele>601.221</ele>
        <time>2012-12-14T10:54:00Z</time>
      </trkpt>
      <trkpt lat="47.29113" lon="4.92882">
        <ele>599.642</ele>
        <time>2012-12-14T10:54:11Z</time>
      </trkpt>
      <trkpt lat="47.29105" lon="4.92865">
        <ele>596.291</ele>
        <time>2012-12-14T10:54:22Z</time>
      </trkpt>
      <trkpt lat="47.29095" lon="4.92852">
        <ele>596.295</ele>
        <time>2012-12-14T10:54:33Z</time>
      </trkpt>
      <trkpt lat="47.2908" lon="4.9284">
        <ele>593.536</ele>
        <time>2012-12-14T10:54:44Z</time>
      </trkpt>
      <trkpt lat="47.29065" lon="4.9283">
        <ele>591.284</ele>
        <time>2012-12-14T10:54:55Z</time>
      </trkpt>
      <trkpt lat="47.29052" lon="4.9282">
        <ele>591.326</ele>
        <time>2012-12-14T10:55:06Z</time>
      </trkpt>
      <trkpt lat="47.29038" lon="4.9281">
        <ele>591.467</ele>
        <time>2012-12-14T10:55:17Z</time>
      </trkpt>
      <trkpt lat="47.29027" lon="4.92802">
        <ele>592.091</ele>
        <time>2012-12-14T10:55:28Z</time>
      </trkpt>
      <trkpt lat="47.29012" lon="4.9279">
        <ele>591.139</ele>
        <time>2012-12-14T10:55:39Z</time>
      </trkpt>
      <trkpt lat="47.29" lon="4.92778">
        <ele>591.082</ele>
        <time>2012-12-14T10:55:50Z</time>
      </trkpt>
      <trkpt lat="47.2899" lon="4.9277">
        <ele>591.786</ele>
        <time>2012-12-14T10:56:01Z</time>
      </trkpt>
      <trkpt lat="47.28978" lon="4.92762">
        <ele>593.877</ele>
        <time>2012-12-14T10:56:12Z</time>
      </trkpt>
      <trkpt lat="47.28965" lon="4.92753">
        <ele>594.989</ele>
        <time>2012-12-14T10:56:23Z</time>
      </trkpt>
      <trkpt lat="47.28952" lon="4.9275">
        <ele>596.476</ele>
        <time>2012-12-14T10:56:34Z</time>
      </trkpt>
      <trkpt lat="47.28937" lon="4.92745">
        <ele>595.313</ele>
        <time>2012-12-14T10:56:45Z</time>
      </trkpt>
      <trkpt lat="47.28928" lon="4.92743">
        <ele>596.739</ele>
        <time>2012-12-14T10:56:56Z</time>
      </trkpt>
      <trkpt lat="47.28925" lon="4.92742">
        <ele>595.021</ele>
        <time>2012-12-14T10:57:07Z</time>
      </trkpt>
      <trkpt lat="47.28918" lon="4.92737">
        <ele>594.515</ele>
        <time>2012-12-14T10:57:18Z</time>
      </trkpt>
      <trkpt lat="47.28912" lon="4.92737">
        <ele>594.967</ele>
        <time>2012-12-14T10:57:29Z</time>
      </trkpt>
      <trkpt lat="47.28905" lon="4.92733">
        <ele>594.428</ele>
        <time>2012-12-14T10:57:40Z</time>
      </trkpt>
      <trkpt lat="47.289" lon="4.92735">
        <ele>593.343</ele>
        <time>2012-12-14T10:57:51Z</time>
      </trkpt>
      <trkpt lat="47.2889" lon="4.92732">
        <ele>593.699</ele>
        <time>2012-12-14T10:58:02Z</time>
      </trkpt>
      <trkpt lat="47.28883" lon="4.92733">
        <ele>594.329</ele>
        <time>2012-12-14T10:58:13Z</time>
      </trkpt>
      <trkpt lat="47.28872" lon="4.92732">
        <ele>594.651</ele>
        <time>2012-12-14T10:58:24Z</time>
      </trkpt>
      <trkpt lat="47.28865" lon="4.92733">
        <ele>595.334</ele>
        <time>2012-12-14T10:58:35Z</time>
      </trkpt>
      <trkpt lat="47.28858" lon="4.92735">
        <ele>595.566</ele>
        <time>2012-12-14T10:58:46Z</time>
      </trkpt>
      <trkpt lat="47.28855" lon="4.92737">
        <ele>596.337</ele>
        <time>2012-12-14T10:58:57Z</time>
      </trkpt>
      <trkpt lat="47.28853" lon="4.92738">
        <ele>596.517</ele>
        <time>2012-12-14T10:59:08Z</time>
      </trkpt>
      <trkpt lat="47.28852" lon="4.9274">
        <ele>596.695</ele>
        <time>2012-12-14T10:59:19Z</time>
      </trkpt>
      <trkpt lat="47.28852" lon="4.9274">
        <ele>596.695</ele>
        <time>2012-12-14T10:59:30Z</time>
      </trkpt>
      <trkpt lat="47.28848" lon="4.92745">
        <ele>595.976</ele>
        <time>2012-12-14T10:59:41Z</time>
      </trkpt>
      <trkpt lat="47.28848" lon="4.92748">
        <ele>595.725</ele>
        <time>2012-12-14T10:59:52Z</time>
      </trkpt>
      <trkpt lat="47.28845" lon="4.92753">
        <ele>595.041</ele>
        <time>2012-12-14T11:00:03Z</time>
      </trkpt>
      <trkpt lat="47.28845" lon="4.92758">
        <ele>594.163</ele>
        <time>2012-12-14T11:00:14Z</time>
      </trkpt>
      <trkpt lat="47.28845" lon="4.92768">
        <ele>595.124</ele>
        <time>2012-12-14T11:00:25Z</time>
      </trkpt>
      <trkpt lat="47.28845" lon="4.92773">
        <ele>595.376</ele>
        <time>2012-12-14T11:00:36Z</time>
      </trkpt>
      <trkpt lat="47.28847" lon="4.92777">
        <ele>594.32</ele>
        <time>2012-12-14T11:00:47Z</time>
      </trkpt>
      <trkpt lat="47.28848" lon="4.92782">
        <ele>594.053</ele>
        <time>2012-12-14T11:00:58Z</time>
      </trkpt>
      <trkpt lat="47.2885" lon="4.92787">
        <ele>593.611</ele>
        <time>2012-12-14T11:01:09Z</time>
      </trkpt>
      <trkpt lat="47.2885" lon="4.92788">
        <ele>593.885</ele>
        <time>2012-12-14T11:01:20Z</time>
      </trkpt>
      <trkpt lat="47.28853" lon="4.92795">
        <ele>593.924</ele>
        <time>2012-12-14T11:01:31Z</time>
      </trkpt>
      <trkpt lat="47.2886" lon="4.92805">
        <ele>592.73</ele>
        <time>2012-12-14T11:01:42Z</time>
      </trkpt>
      <trkpt lat="47.28865" lon="4.92812">
        <ele>592.846</ele>
        <time>2012-12-14T11:01:53Z</time>
      </trkpt>
      <trkpt lat="47.28875" lon="4.92822">
        <ele>591.107</ele>
        <time>2012-12-14T11:02:04Z</time>
      </trkpt>
      <trkpt lat="47.28887" lon="4.92833">
        <ele>590.407</ele>
        <time>2012-12-14T11:02:15Z</time>
      </trkpt>
      <trkpt lat="47.28892" lon="4.92842">
        <ele>588.934</ele>
        <time>2012-12-14T11:02:26Z</time>
      </trkpt>
      <trkpt lat="47.28903" lon="4.92857">
        <ele>585.636</ele>
        <time>2012-12-14T11:02:37Z</time>
      </trkpt>
      <trkpt lat="47.28912" lon="4.92875">
        <ele>582.808</ele>
        <time>2012-12-14T11:02:48Z</time>
      </trkpt>
      <trkpt lat="47.28923" lon="4.92893">
        <ele>578.463</ele>
        <time>2012-12-14T11:02:59Z</time>
      </trkpt>
      <trkpt lat="47.28932" lon="4.92913">
        <ele>577.834</ele>
        <time>2012-12-14T11:03:10Z</time>
      </trkpt>
      <trkpt lat="47.28937" lon="4.9293">
        <ele>575.983</ele>
        <time>2012-12-14T11:03:21Z</time>
      </trkpt>
      <trkpt lat="47.28943" lon="4.92943">
        <ele>572.754</ele>
        <time>2012-12-14T11:03:32Z</time>
      </trkpt>
      <trkpt lat="47.28948" lon="4.9296">
        <ele>571.223</ele>
        <time>2012-12-14T11:03:43Z</time>
      </trkpt>
      <trkpt lat="47.2896" lon="4.92987">
        <ele>566.255</ele>
        <time>2012-12-14T11:03:54Z</time>
      </trkpt>
      <trkpt lat="47.28977" lon="4.93017">
        <ele>559.829</ele>
        <time>2012-12-14T11:04:05Z</time>
      </trkpt>
      <trkpt lat="47.2899" lon="4.9304">
        <ele>556.89</ele>
        <time>2012-12-14T11:04:16Z</time>
      </trkpt>
      <trkpt lat="47.28998" lon="4.93055">
        <ele>555.158</ele>
        <time>2012-12-14T11:04:27Z</time>
      </trkpt>
      <trkpt lat="47.29005" lon="4.93067">
        <ele>552.312</ele>
        <time>2012-12-14T11:04:38Z</time>
      </trkpt>
      <trkpt lat="47.29013" lon="4.9309">
        <ele>551.173</ele>
        <time>2012-12-14T11:04:49Z</time>
      </trkpt>
      <trkpt lat="47.29025" lon="4.93122">
        <ele>547.074</ele>
        <time>2012-12-14T11:05:00Z</time>
      </trkpt>
      <trkpt lat="47.29035" lon="4.9314">
        <ele>546.288</ele>
        <time>2012-12-14T11:05:11Z</time>
      </trkpt>
      <trkpt lat="47.29045" lon="4.93162">
        <ele>544.121</ele>
        <time>2012-12-14T11:05:22Z</time>
      </trkpt>
      <trkpt lat="47.29055" lon="4.93185">
        <ele>539.539</ele>
        <time>2012-12-14T11:05:33Z</time>
      </trkpt>
      <trkpt lat="47.29065" lon="4.93208">
        <ele>536.857</ele>
        <time>2012-12-14T11:05:44Z</time>
      </trkpt>
      <trkpt lat="47.2907" lon="4.93232">
        <ele>534.653</ele>
        <time>2012-12-14T11:05:55Z</time>
      </trkpt>
      <trkpt lat="47.29077" lon="4.93253">
        <ele>532.464</ele>
        <time>2012-12-14T11:06:06Z</time>
      </trkpt>
      <trkpt lat="47.29078" lon="4.93275">
        <ele>530.352</ele>
        <time>2012-12-14T11:06:17Z</time>
      </trkpt>
      <trkpt lat="47.29082" lon="4.93305">
        <ele>525.73</ele>
        <time>2012-12-14T11:06:28Z</time>
      </trkpt>
      <trkpt lat="47.29087" lon="4.93328">
        <ele>524.115</ele>
        <time>2012-12-14T11:06:39Z</time>
      </trkpt>
      <trkpt lat="47.29092" lon="4.93352">
        <ele>519.632</ele>
        <time>2012-12-14T11:06:50Z</time>
      </trkpt>
      <trkpt lat="47.291" lon="4.93372">
        <ele>516.631</ele>
        <time>2012-12-14T11:07:01Z</time>
      </trkpt>
      <trkpt lat="47.29103" lon="4.93403">
        <ele>516.758</ele>
        <time>2012-12-14T11:07:12Z</time>
      </trkpt>
      <trkpt lat="47.29112" lon="4.93428">
        <ele>511.921</ele>
        <time>2012-12-14T11:07:23Z</time>
      </trkpt>
      <trkpt lat="47.2912" lon="4.93453">
        <ele>508.89</ele>
        <time>2012-12-14T11:07:34Z</time>
      </trkpt>
      <trkpt lat="47.2913" lon="4.93477">
        <ele>505.367</ele>
        <time>2012-12-14T11:07:45Z</time>
      </trkpt>
      <trkpt lat="47.29138" lon="4.93498">
        <ele>502.247</ele>
        <time>2012-12-14T11:07:56Z</time>
      </trkpt>
      <trkpt lat="47.29148" lon="4.93522">
        <ele>500.135</ele>
        <time>2012-12-14T11:08:07Z</time>
      </trkpt>
      <trkpt lat="47.2916" lon="4.93538">
        <ele>499.783</ele>
        <time>2012-12-14T11:08:18Z</time>
      </trkpt>
      <trkpt lat="47.29167" lon="4.93555">
        <ele>501</ele>
        <time>2012-12-14T11:08:29Z</time>
      </trkpt>
      <trkpt lat="47.29173" lon="4.93575">
        <ele>499.102</ele>
        <time>2012-12-14T11:08:40Z</time>
      </trkpt>
      <trkpt lat="47.29182" lon="4.936">
        <ele>497.803</ele>
        <time>2012-12-14T11:08:51Z</time>
      </trkpt>
      <trkpt lat="47.29187" lon="4.9362">
        <ele>496.714</ele>
        <time>2012-12-14T11:09:02Z</time>
      </trkpt>
      <trkpt lat="47.29195" lon="4.9364">
        <ele>498.669</ele>
        <time>2012-12-14T11:09:13Z</time>
      </trkpt>
      <trkpt lat="47.29205" lon="4.93662">
        <ele>497.057</ele>
        <time>2012-12-14T11:09:24Z</time>
      </trkpt>
      <trkpt lat="47.29213" lon="4.9368">
        <ele>496.516</ele>
        <time>2012-12-14T11:09:35Z</time>
      </trkpt>
      <trkpt lat="47.29223" lon="4.937">
        <ele>495.199</ele>
        <time>2012-12-14T11:09:46Z</time>
      </trkpt>
      <trkpt lat="47.29233" lon="4.93717">
        <ele>497.036</ele>
        <time>2012-12-14T11:09:57Z</time>
      </trkpt>
      <trkpt lat="47.29237" lon="4.93735">
        <ele>499.165</ele>
        <time>2012-12-14T11:10:08Z</time>
      </trkpt>
      <trkpt lat="47.29245" lon="4.93755">
        <ele>497.379</ele>
        <time>2012-12-14T11:10:19Z</time>
      </trkpt>
      <trkpt lat="47.29247" lon="4.93778">
        <ele>496.089</ele>
        <time>2012-12-14T11:10:30Z</time>
      </trkpt>
      <trkpt lat="47.29252" lon="4.938">
        <ele>496.134</ele>
        <time>2012-12-14T11:10:41Z</time>
      </trkpt>
      <trkpt lat="47.2926" lon="4.93823">
        <ele>495.64</ele>
        <time>2012-12-14T11:10:52Z</time>
      </trkpt>
      <trkpt lat="47.29267" lon="4.93848">
        <ele>494.923</ele>
        <time>2012-12-14T11:11:03Z</time>
      </trkpt>
      <trkpt lat="47.29275" lon="4.9387">
        <ele>491.643</ele>
        <time>2012-12-14T11:11:14Z</time>
      </trkpt>
      <trkpt lat="47.29278" lon="4.9389">
        <ele>490.436</ele>
        <time>2012-12-14T11:11:25Z</time>
      </trkpt>
      <trkpt lat="47.29283" lon="4.93918">
        <ele>488.5</ele>
        <time>2012-12-14T11:11:36Z</time>
      </trkpt>
      <trkpt lat="47.29287" lon="4.93938">
        <ele>484.902</ele>
        <time>2012-12-14T11:11:47Z</time>
      </trkpt>
      <trkpt lat="47.2928" lon="4.93953">
        <ele>477.807</ele>
        <time>2012-12-14T11:11:58Z</time>
      </trkpt>
      <trkpt lat="47.2927" lon="4.93957">
        <ele>474.756</ele>
        <time>2012-12-14T11:12:09Z</time>
      </trkpt>
      <trkpt lat="47.29258" lon="4.93958">
        <ele>473.733</ele>
        <time>2012-12-14T11:12:20Z</time>
      </trkpt>
      <trkpt lat="47.29255" lon="4.9396">
        <ele>473.765</ele>
        <time>2012-12-14T11:12:31Z</time>
      </trkpt>
      <trkpt lat="47.29255" lon="4.9396">
        <ele>473.502</ele>
        <time>2012-12-14T11:12:42Z</time>
      </trkpt>
      <trkpt lat="47.2925" lon="4.9396">
        <ele>472.685</ele>
        <time>2012-12-14T11:12:53Z</time>
      </trkpt>
      <trkpt lat="47.29247" lon="4.93962">
        <ele>472.846</ele>
        <time>2012-12-14T11:13:04Z</time>
      </trkpt>
      <trkpt lat="47.29242" lon="4.93965">
        <ele>471.152</ele>
        <time>2012-12-14T11:13:15Z</time>
      </trkpt>
    </trkseg>
  </trk>
</gpx>